Thursday, November 15, 2018, 8:24 PM EST
Back to Local

KITH, Ithaca, Ithaca Tompkins Regional Airport

Location: Ithaca, NY, United States Lat: 42.491
Local Time: 8:24 PM EST ( 1:24 GMT) Lon: -76.458
Time Zone: US/Eastern Elev: 1099 ft

Show me the last for .
Show Decoded

2018-11-15 19:55 METAR KITH 160055Z 09006KT 1SM -SN BR OVC011 M03/M04 A3004 =
2018-11-15 18:55 METAR KITH 152355Z 12008KT 1SM -SN BR OVC012 M03/M04 A3010 =
2018-11-15 17:55 METAR KITH 152255Z 11007KT 1SM -SN BR OVC012 M03/M05 A3016 =
2018-11-15 16:55 METAR KITH 152155Z 11008KT 1SM -SN BR OVC012 M03/M06 A3018 =
2018-11-15 15:55 METAR KITH 152055Z 14008KT 1SM -SN BKN025 M03/M06 A3022 =
2018-11-15 14:55 METAR KITH 151955Z 15010KT 10SM BKN085 M02/M08 A3022 =
2018-11-15 13:55 METAR KITH 151855Z 15009KT 10SM OVC027 M02/M07 A3027 =
2018-11-15 12:55 METAR KITH 151755Z 15010G18KT 10SM CLR M02/M07 A3029 =
2018-11-15 11:55 METAR KITH 151655Z 14009KT 10SM CLR M02/M07 A3032 =
2018-11-15 10:57 METAR KITH 151557Z 13008KT 10SM CLR M03/M07 A3036 =
2018-11-15 09:55 METAR KITH 151455Z 15009KT 10SM CLR M04/M08 A3040 =
2018-11-15 08:55 METAR KITH 151355Z 11004KT 10SM CLR M05/M06 A3043 =
2018-11-15 07:55 METAR KITH 151255Z 09003KT 10SM CLR M06/M07 A3045 =
2018-11-15 06:55 METAR KITH 151155Z 15004KT 10SM CLR M07/M08 A3048 =
2018-11-15 06:30 METAR KITH 151130Z 10005KT 10SM CLR M07/M08 A3045 =
2018-11-14 21:55 METAR KITH 150255Z 08003KT 10SM FEW041 M08/M09 A3054 =
2018-11-14 20:55 METAR KITH 150155Z 00000KT 10SM BKN041 M07/M09 A3053 =

Support USWX by starting your Amazon purchase here.